Time;durP1;ratioP1;P1;durP2;ratioP2;P2;SDS_P1;SDS_P2;PMS_P1;PMS_P2;Temp;Humidity;BMP_temperature;BMP_pressure;BME280_temperature;BME280_humidity;BME280_pressure;Samples;Min_cycle;Max_cycle;Signal;HPM_P1;HPM_P2
2022/07/03 00:01:30;;;;;;;2.85;0.90;;;18.80;66.60;;;;;;5054346;28;20057;-67
2022/07/03 00:03:59;;;;;;;4.35;1.13;;;18.80;66.80;;;;;;5059960;28;20051;-67
2022/07/03 00:06:27;;;;;;;3.92;0.85;;;18.70;66.80;;;;;;5059240;28;20517;-67
2022/07/03 00:08:54;;;;;;;1.70;0.80;;;18.70;66.80;;;;;;5060102;28;20135;-67
2022/07/03 00:11:21;;;;;;;2.60;0.95;;;18.70;66.90;;;;;;5059346;28;20053;-67
2022/07/03 00:13:48;;;;;;;2.35;0.88;;;18.70;66.80;;;;;;5059235;28;20507;-67
2022/07/03 00:16:16;;;;;;;2.13;1.25;;;18.70;66.90;;;;;;5060316;28;20060;-67
2022/07/03 00:18:43;;;;;;;2.50;1.10;;;18.60;66.90;;;;;;5059704;28;20056;-67
2022/07/03 00:21:17;;;;;;;1.67;0.98;;;18.60;67.00;;;;;;5059993;28;20052;-67
2022/07/03 00:23:47;;;;;;;2.42;1.33;;;18.60;67.20;;;;;;5056402;28;20115;-66
2022/07/03 00:26:15;;;;;;;1.63;1.20;;;18.50;67.50;;;;;;5060054;28;20045;-67
2022/07/03 00:28:44;;;;;;;2.22;1.08;;;18.50;67.60;;;;;;5058817;28;20053;-65
2022/07/03 00:31:12;;;;;;;2.60;0.90;;;18.40;67.40;;;;;;5059567;28;20470;-67
2022/07/03 00:33:40;;;;;;;1.48;1.00;;;18.40;67.60;;;;;;5048146;28;20458;-66
2022/07/03 00:36:07;;;;;;;1.65;0.90;;;18.30;67.70;;;;;;5058166;28;20136;-67
2022/07/03 00:38:35;;;;;;;2.80;1.08;;;18.30;67.80;;;;;;5055482;28;20052;-67
2022/07/03 00:41:04;;;;;;;1.52;0.98;;;18.20;67.90;;;;;;5057627;28;20136;-66
2022/07/03 00:43:31;;;;;;;2.47;0.93;;;18.30;68.00;;;;;;5059905;28;20061;-67
2022/07/03 00:46:07;;;;;;;5.07;1.40;;;18.20;67.90;;;;;;5057025;28;20041;-68
2022/07/03 00:48:38;;;;;;;2.72;1.10;;;18.20;68.10;;;;;;5058768;28;20137;-68
2022/07/03 00:51:06;;;;;;;2.10;1.00;;;18.20;68.20;;;;;;5055468;28;20178;-66
2022/07/03 00:53:37;;;;;;;1.83;1.05;;;18.10;68.30;;;;;;5056488;28;20486;-71
2022/07/03 00:56:05;;;;;;;2.33;1.00;;;18.10;68.50;;;;;;5057412;28;20068;-67
2022/07/03 00:58:34;;;;;;;1.70;0.82;;;18.00;68.50;;;;;;5057261;28;20053;-66
2022/07/03 01:01:02;;;;;;;2.00;0.90;;;18.10;68.60;;;;;;5036869;28;20397;-68
2022/07/03 01:03:33;;;;;;;1.67;1.00;;;18.00;68.70;;;;;;5054459;28;20444;-67
2022/07/03 01:06:04;;;;;;;3.03;0.95;;;17.90;68.90;;;;;;5049736;28;20896;-69
2022/07/03 01:08:37;;;;;;;1.63;0.85;;;17.90;69.00;;;;;;5045378;28;20040;-68
2022/07/03 01:11:10;;;;;;;3.60;1.35;;;17.90;69.20;;;;;;5046192;28;20047;-69
2022/07/03 01:13:44;;;;;;;2.65;1.20;;;17.80;69.20;;;;;;5043260;28;20049;-68
2022/07/03 01:16:22;;;;;;;2.42;1.08;;;17.80;69.40;;;;;;5047562;28;20044;-67
2022/07/03 01:18:53;;;;;;;5.45;0.93;;;17.70;69.60;;;;;;5044663;28;20040;-68
2022/07/03 01:21:30;;;;;;;1.75;1.02;;;17.70;69.60;;;;;;5045257;28;20409;-67
2022/07/03 01:24:18;;;;;;;2.25;1.25;;;17.70;69.60;;;;;;5044015;28;20047;-68
2022/07/03 01:26:48;;;;;;;2.42;1.08;;;17.70;69.70;;;;;;5042945;28;20055;-67
2022/07/03 01:29:22;;;;;;;3.55;1.33;;;17.60;69.90;;;;;;5045188;28;20519;-68
2022/07/03 01:31:52;;;;;;;2.83;1.20;;;17.60;70.00;;;;;;5044011;28;20052;-67
2022/07/03 01:34:21;;;;;;;4.72;1.40;;;17.60;70.00;;;;;;5060303;28;20132;-68
2022/07/03 01:36:49;;;;;;;2.83;1.40;;;17.60;70.00;;;;;;5040036;28;20045;-67
2022/07/03 01:39:18;;;;;;;4.05;1.60;;;17.60;69.90;;;;;;5046723;28;20052;-68
2022/07/03 01:41:49;;;;;;;3.83;1.50;;;17.50;70.10;;;;;;5047949;28;20044;-68
2022/07/03 01:44:16;;;;;;;6.78;1.63;;;17.50;70.10;;;;;;5039221;28;20071;-67
2022/07/03 01:46:46;;;;;;;2.53;1.20;;;17.50;69.90;;;;;;5046716;28;20080;-66
2022/07/03 01:49:15;;;;;;;2.42;1.23;;;17.50;69.90;;;;;;5052493;28;20429;-67
2022/07/03 01:51:43;;;;;;;2.78;1.33;;;17.40;70.00;;;;;;5046422;28;20053;-66
2022/07/03 01:54:11;;;;;;;2.75;1.27;;;17.40;70.20;;;;;;5048310;28;20061;-67
2022/07/03 01:56:38;;;;;;;2.35;1.02;;;17.30;70.40;;;;;;5035261;28;20432;-69
2022/07/03 01:59:06;;;;;;;2.53;1.20;;;17.30;70.30;;;;;;5052857;28;20061;-66
2022/07/03 02:01:46;;;;;;;4.07;1.52;;;17.20;70.50;;;;;;5045907;28;20037;-67
2022/07/03 02:04:22;;;;;;;1.60;0.90;;;17.30;70.20;;;;;;5049494;28;20044;-67
2022/07/03 02:07:00;;;;;;;2.15;0.90;;;17.30;70.20;;;;;;5049606;28;20055;-68
2022/07/03 02:09:36;;;;;;;3.58;1.35;;;17.30;69.80;;;;;;5050169;28;20059;-67
2022/07/03 02:12:04;;;;;;;3.13;1.40;;;17.30;70.00;;;;;;5039783;28;20538;-67
2022/07/03 02:14:36;;;;;;;2.92;1.10;;;17.20;70.30;;;;;;5048321;28;20490;-67
2022/07/03 02:17:10;;;;;;;3.47;1.20;;;17.30;69.90;;;;;;5049463;28;20048;-68
2022/07/03 02:19:45;;;;;;;3.35;1.17;;;17.30;69.70;;;;;;5049786;28;20060;-67
2022/07/03 02:22:13;;;;;;;2.03;1.17;;;17.20;69.90;;;;;;5048833;28;20073;-68
2022/07/03 02:24:44;;;;;;;4.95;1.20;;;17.10;70.20;;;;;;5051025;28;20072;-68
2022/07/03 02:27:17;;;;;;;2.97;1.05;;;17.10;70.40;;;;;;5047986;28;20047;-68
2022/07/03 02:29:50;;;;;;;1.92;1.15;;;17.10;70.50;;;;;;5048349;28;20049;-68
2022/07/03 02:32:22;;;;;;;2.00;1.05;;;17.10;70.50;;;;;;5047692;28;20055;-69
2022/07/03 02:34:57;;;;;;;2.75;1.20;;;17.10;70.60;;;;;;5048148;28;20045;-68
2022/07/03 02:37:29;;;;;;;2.03;1.10;;;17.10;70.80;;;;;;5063633;28;20509;-68
2022/07/03 02:40:04;;;;;;;2.08;1.02;;;17.00;70.90;;;;;;5047025;28;20041;-67
2022/07/03 02:42:39;;;;;;;1.70;0.75;;;17.00;70.90;;;;;;5047783;28;20068;-68
2022/07/03 02:45:10;;;;;;;1.52;1.00;;;17.00;71.00;;;;;;5047112;28;20060;-66
2022/07/03 02:47:44;;;;;;;2.30;1.00;;;17.00;70.90;;;;;;5046557;28;20055;-66
2022/07/03 02:50:13;;;;;;;3.33;1.17;;;16.90;70.90;;;;;;5052181;28;20060;-68
2022/07/03 02:52:55;;;;;;;2.42;1.10;;;16.90;71.00;;;;;;5043310;28;20052;-66
2022/07/03 02:55:46;;;;;;;2.53;1.70;;;16.90;71.10;;;;;;5049805;28;20479;-67
2022/07/03 02:58:36;;;;;;;2.35;1.17;;;16.90;71.20;;;;;;5045280;28;20099;-68
2022/07/03 03:01:10;;;;;;;2.10;0.90;;;16.80;71.30;;;;;;5041384;28;20055;-68
2022/07/03 03:03:39;;;;;;;4.22;1.30;;;16.70;71.40;;;;;;5046598;28;20045;-67
2022/07/03 03:06:13;;;;;;;2.35;1.13;;;16.70;71.30;;;;;;5046743;28;20052;-68
2022/07/03 03:08:47;;;;;;;2.35;1.10;;;16.70;71.00;;;;;;5038283;28;20044;-67
2022/07/03 03:11:24;;;;;;;3.63;1.13;;;16.80;70.50;;;;;;5027429;28;20046;-68
2022/07/03 03:13:55;;;;;;;2.42;1.20;;;16.80;70.40;;;;;;5027342;28;20180;-67
2022/07/03 03:16:24;;;;;;;2.40;1.40;;;16.90;70.10;;;;;;5026645;28;20041;-68
2022/07/03 03:18:51;;;;;;;2.47;1.08;;;16.90;70.20;;;;;;5027727;28;20123;-68
2022/07/03 03:21:19;;;;;;;3.50;1.08;;;16.90;70.20;;;;;;5028386;28;20053;-68
2022/07/03 03:23:49;;;;;;;3.72;1.30;;;16.70;70.50;;;;;;5030875;28;20049;-68
2022/07/03 03:26:19;;;;;;;2.58;1.20;;;16.70;70.60;;;;;;5027296;28;20403;-69
2022/07/03 03:28:46;;;;;;;3.45;1.58;;;16.70;70.80;;;;;;5028249;28;20049;-67
2022/07/03 03:31:13;;;;;;;2.35;1.10;;;16.60;71.00;;;;;;5026411;28;20045;-68
2022/07/03 03:33:43;;;;;;;2.67;1.23;;;16.60;71.10;;;;;;5027726;28;20487;-68
2022/07/03 03:36:12;;;;;;;;;;;16.60;71.40;;;;;;5028149;28;20566;-67
2022/07/03 03:38:40;;;;;;;3.20;1.25;;;16.60;71.50;;;;;;5027643;28;19924;-68
2022/07/03 03:41:08;;;;;;;3.00;1.52;;;16.50;71.60;;;;;;5029988;28;20049;-67
2022/07/03 03:43:36;;;;;;;1.92;1.10;;;16.50;71.60;;;;;;5028214;28;20077;-67
2022/07/03 03:46:03;;;;;;;4.53;1.27;;;16.50;71.70;;;;;;5027227;28;20041;-67
2022/07/03 03:48:32;;;;;;;3.00;1.27;;;16.40;71.80;;;;;;5028906;28;20059;-67
2022/07/03 03:51:02;;;;;;;2.53;1.02;;;16.50;71.90;;;;;;5031329;28;20046;-68
2022/07/03 03:53:30;;;;;;;1.52;0.80;;;16.40;72.00;;;;;;5027236;28;20049;-68
2022/07/03 03:56:02;;;;;;;3.63;1.10;;;16.40;72.10;;;;;;5047325;28;20079;-68
2022/07/03 03:58:29;;;;;;;2.05;1.15;;;16.30;72.20;;;;;;5045925;28;20045;-66
2022/07/03 04:00:57;;;;;;;1.27;1.00;;;16.30;72.30;;;;;;5046208;28;20052;-68
2022/07/03 04:03:24;;;;;;;3.30;1.20;;;16.30;72.40;;;;;;5046437;28;20064;-66
2022/07/03 04:05:51;;;;;;;4.45;1.23;;;16.30;72.60;;;;;;5046857;28;20060;-68
2022/07/03 04:08:20;;;;;;;1.63;1.00;;;16.30;72.70;;;;;;5048319;28;20057;-66
2022/07/03 04:10:47;;;;;;;1.23;1.00;;;16.30;72.80;;;;;;5041325;28;20045;-68
2022/07/03 04:13:14;;;;;;;2.63;1.05;;;16.30;72.70;;;;;;5049281;28;20120;-68
2022/07/03 04:15:41;;;;;;;1.63;0.90;;;16.20;72.70;;;;;;5046982;28;20052;-69
2022/07/03 04:18:08;;;;;;;3.08;0.80;;;16.20;72.70;;;;;;5046417;28;20053;-67
2022/07/03 04:20:35;;;;;;;1.52;1.00;;;16.20;72.80;;;;;;5043541;28;20059;-67
2022/07/03 04:23:02;;;;;;;1.38;0.98;;;16.20;72.90;;;;;;5032150;28;20049;-69
2022/07/03 04:25:31;;;;;;;2.28;1.00;;;16.20;72.90;;;;;;5046305;28;20079;-66
2022/07/03 04:28:00;;;;;;;2.97;1.05;;;16.20;73.10;;;;;;5052606;28;20059;-67
2022/07/03 04:30:28;;;;;;;4.50;0.90;;;16.20;73.10;;;;;;5045509;28;20045;-68
2022/07/03 04:32:55;;;;;;;1.48;0.90;;;16.20;73.30;;;;;;5046522;28;20063;-67
2022/07/03 04:35:22;;;;;;;2.45;1.00;;;16.30;73.20;;;;;;5041718;28;20526;-68
2022/07/03 04:37:49;;;;;;;4.20;1.45;;;16.30;73.10;;;;;;5044365;28;20053;-68
2022/07/03 04:40:16;;;;;;;2.30;1.20;;;16.30;73.10;;;;;;5043987;28;20045;-68
2022/07/03 04:42:44;;;;;;;1.42;1.10;;;16.30;73.10;;;;;;5042920;28;20057;-68
2022/07/03 04:45:11;;;;;;;2.00;1.20;;;16.30;73.00;;;;;;5030843;28;20394;-68
2022/07/03 04:47:38;;;;;;;2.72;1.25;;;16.40;73.00;;;;;;5025104;28;20067;-68
2022/07/03 04:50:06;;;;;;;1.38;0.90;;;16.40;73.10;;;;;;5048356;28;20053;-68
2022/07/03 04:52:33;;;;;;;3.88;1.30;;;16.40;73.20;;;;;;5024949;28;20345;-68
2022/07/03 04:55:00;;;;;;;2.13;1.23;;;16.40;73.20;;;;;;5048297;28;20052;-68
2022/07/03 04:57:28;;;;;;;4.32;1.17;;;16.40;73.00;;;;;;5055572;28;20040;-67
2022/07/03 04:59:56;;;;;;;3.65;1.30;;;16.40;72.90;;;;;;5052860;28;20913;-68
2022/07/03 05:02:23;;;;;;;2.15;1.10;;;16.50;72.80;;;;;;5040754;28;20037;-67
2022/07/03 05:04:50;;;;;;;3.78;1.15;;;16.50;72.50;;;;;;5044704;28;20063;-69
2022/07/03 05:07:17;;;;;;;3.25;1.02;;;16.50;72.40;;;;;;5046866;28;20050;-68
2022/07/03 05:09:44;;;;;;;1.70;1.10;;;16.60;72.10;;;;;;5049969;28;20052;-68
2022/07/03 05:12:11;;;;;;;2.70;1.00;;;16.60;71.90;;;;;;5052055;28;20135;-67
2022/07/03 05:14:38;;;;;;;1.73;0.90;;;16.60;71.80;;;;;;5050505;28;20045;-69
2022/07/03 05:17:06;;;;;;;1.95;1.10;;;16.60;71.90;;;;;;5053933;28;20051;-68
2022/07/03 05:19:33;;;;;;;2.22;1.10;;;16.60;71.90;;;;;;5052480;28;20041;-68
2022/07/03 05:22:00;;;;;;;1.20;0.90;;;16.70;71.60;;;;;;5050621;28;20044;-68
2022/07/03 05:24:27;;;;;;;2.45;1.30;;;16.70;71.80;;;;;;5046945;28;20045;-68
2022/07/03 05:26:54;;;;;;;2.15;1.05;;;16.70;71.90;;;;;;5047059;28;20176;-68
2022/07/03 05:29:21;;;;;;;3.08;0.98;;;16.80;71.70;;;;;;5047155;28;20099;-67
2022/07/03 05:31:48;;;;;;;2.15;1.13;;;16.90;71.30;;;;;;5043750;28;20059;-67
2022/07/03 05:34:16;;;;;;;3.08;1.55;;;16.90;71.40;;;;;;5044758;28;20045;-67
2022/07/03 05:36:43;;;;;;;2.85;1.58;;;16.90;71.40;;;;;;5044934;28;20689;-68
2022/07/03 05:41:55;;;;;;;1.98;1.00;;;17.00;70.90;;;;;;5026600;28;20052;-66
2022/07/03 05:44:22;;;;;;;3.15;1.40;;;17.10;71.00;;;;;;5033939;28;20056;-67
2022/07/03 05:46:49;;;;;;;1.90;1.10;;;17.10;71.00;;;;;;5027998;28;20163;-66
2022/07/03 05:49:17;;;;;;;2.10;1.00;;;17.10;71.00;;;;;;5028763;28;20045;-68
2022/07/03 05:51:44;;;;;;;3.03;1.50;;;17.10;70.90;;;;;;5028421;28;20518;-67
2022/07/03 05:54:11;;;;;;;3.10;1.40;;;17.10;71.00;;;;;;5029313;28;20056;-68
2022/07/03 05:56:38;;;;;;;2.65;1.17;;;17.10;70.90;;;;;;5023548;28;20049;-67
2022/07/03 05:59:04;;;;;;;2.35;1.15;;;17.20;70.80;;;;;;5021484;28;20139;-66
2022/07/03 06:01:31;;;;;;;2.75;1.15;;;17.20;70.80;;;;;;5026793;28;20127;-68
2022/07/03 06:03:59;;;;;;;3.78;1.20;;;17.20;70.70;;;;;;5021251;28;20519;-67
2022/07/03 06:06:27;;;;;;;3.58;1.40;;;17.20;70.70;;;;;;5018301;28;20103;-67
2022/07/03 06:08:54;;;;;;;2.25;1.05;;;17.30;70.50;;;;;;5025144;28;20827;-67
2022/07/03 06:11:21;;;;;;;1.98;1.02;;;17.40;70.30;;;;;;5039018;28;20045;-67
2022/07/03 06:13:48;;;;;;;4.88;1.40;;;17.40;70.20;;;;;;5046868;28;20481;-68
2022/07/03 06:16:15;;;;;;;2.45;1.20;;;17.50;70.00;;;;;;5043599;28;20061;-67
2022/07/03 06:18:42;;;;;;;1.77;0.93;;;17.60;69.70;;;;;;5047353;28;20043;-68
2022/07/03 06:21:09;;;;;;;3.90;1.30;;;17.60;69.70;;;;;;5049442;28;20060;-67
2022/07/03 06:23:37;;;;;;;3.45;1.05;;;17.70;69.50;;;;;;5042989;28;20048;-69
2022/07/03 06:26:04;;;;;;;2.63;1.20;;;17.80;69.50;;;;;;5044416;28;20045;-68
2022/07/03 06:28:31;;;;;;;1.67;1.00;;;17.80;69.00;;;;;;5044720;28;20057;-67
2022/07/03 06:30:58;;;;;;;2.78;1.00;;;17.90;68.70;;;;;;5040531;28;20048;-68
2022/07/03 06:33:25;;;;;;;1.40;0.90;;;18.00;68.50;;;;;;5047158;28;20052;-67
2022/07/03 06:35:52;;;;;;;2.70;1.20;;;18.10;68.20;;;;;;5047407;28;20556;-67
2022/07/03 06:38:19;;;;;;;2.22;1.23;;;18.30;68.40;;;;;;5041657;28;20056;-69
2022/07/03 06:40:47;;;;;;;4.03;1.77;;;18.40;68.30;;;;;;5049730;28;20135;-68
2022/07/03 06:43:14;;;;;;;3.33;1.15;;;18.50;68.30;;;;;;5060073;28;20052;-68
2022/07/03 06:45:41;;;;;;;2.78;1.10;;;18.60;67.70;;;;;;5056974;28;20041;-68
2022/07/03 06:48:08;;;;;;;3.42;1.42;;;18.80;67.50;;;;;;5058954;28;20057;-68
2022/07/03 06:50:35;;;;;;;3.17;1.65;;;18.90;67.70;;;;;;5054997;28;20528;-68
2022/07/03 06:53:02;;;;;;;3.00;1.48;;;19.10;67.20;;;;;;5056906;28;20048;-68
2022/07/03 06:55:29;;;;;;;3.35;1.38;;;19.20;67.10;;;;;;5056811;28;20567;-66
2022/07/03 06:57:57;;;;;;;3.78;1.52;;;19.30;67.20;;;;;;5059416;28;20052;-68
2022/07/03 07:00:24;;;;;;;2.42;1.23;;;19.50;66.80;;;;;;5052304;28;20056;-69
2022/07/03 07:02:51;;;;;;;3.38;1.10;;;19.60;66.70;;;;;;5049205;28;20045;-68
2022/07/03 07:05:18;;;;;;;4.03;1.45;;;19.80;66.60;;;;;;5049403;28;20044;-67
2022/07/03 07:07:45;;;;;;;3.58;1.70;;;20.00;66.00;;;;;;5046960;28;20522;-68
2022/07/03 07:10:12;;;;;;;3.22;1.48;;;20.10;65.60;;;;;;5048332;28;20049;-69
2022/07/03 07:12:39;;;;;;;2.40;1.23;;;20.30;65.60;;;;;;5061589;28;20509;-67
2022/07/03 07:15:08;;;;;;;2.83;1.38;;;20.40;65.30;;;;;;5056598;28;20053;-68
2022/07/03 07:17:35;;;;;;;3.17;1.30;;;20.50;65.00;;;;;;5054676;28;20045;-67
2022/07/03 07:20:02;;;;;;;2.70;1.20;;;20.70;64.80;;;;;;5052138;28;20487;-69
2022/07/03 07:22:29;;;;;;;2.92;1.45;;;20.80;64.60;;;;;;5052977;28;20080;-70
2022/07/03 07:24:56;;;;;;;3.58;1.55;;;21.00;64.10;;;;;;5045450;28;20132;-67
2022/07/03 07:27:23;;;;;;;4.03;1.70;;;21.20;64.20;;;;;;5048803;28;20045;-67
2022/07/03 07:29:50;;;;;;;2.97;1.40;;;21.40;63.70;;;;;;5047951;28;20055;-68
2022/07/03 07:32:18;;;;;;;2.17;1.27;;;21.60;63.40;;;;;;5050815;28;20131;-69
2022/07/03 07:34:45;;;;;;;2.88;1.23;;;21.70;61.50;;;;;;5047968;28;20059;-67
2022/07/03 07:37:12;;;;;;;1.65;0.93;;;22.00;61.40;;;;;;5047189;28;20056;-67
2022/07/03 07:39:39;;;;;;;2.05;1.23;;;22.20;60.90;;;;;;5044766;28;20067;-68
2022/07/03 07:42:06;;;;;;;2.85;0.90;;;22.30;61.00;;;;;;5052007;28;20057;-68
2022/07/03 07:44:33;;;;;;;2.72;0.98;;;22.50;59.90;;;;;;5048789;28;20040;-68
2022/07/03 07:47:00;;;;;;;1.85;0.90;;;22.70;59.30;;;;;;5052078;28;20048;-67
2022/07/03 07:49:28;;;;;;;5.78;1.10;;;22.80;59.00;;;;;;5054246;28;20046;-68
2022/07/03 07:51:55;;;;;;;1.63;1.00;;;23.00;59.00;;;;;;5054126;28;20040;-68
2022/07/03 07:54:22;;;;;;;3.42;1.10;;;23.10;58.80;;;;;;5048431;28;20048;-67
2022/07/03 07:56:49;;;;;;;3.17;1.15;;;23.30;58.20;;;;;;5047164;28;20430;-67
2022/07/03 07:59:16;;;;;;;1.85;1.00;;;23.50;58.00;;;;;;5045369;28;20063;-67
2022/07/03 08:07:14;;;;;;;1.55;1.15;;;23.90;56.60;;;;;;5047212;28;20049;-64
2022/07/03 08:09:41;;;;;;;1.65;1.00;;;24.00;56.40;;;;;;5045249;28;20048;-62
2022/07/03 08:12:09;;;;;;;1.60;0.80;;;24.20;55.70;;;;;;5040608;28;20049;-65
2022/07/03 08:14:36;;;;;;;2.05;1.00;;;24.30;55.40;;;;;;5051229;28;20057;-63
2022/07/03 08:17:03;;;;;;;1.48;0.98;;;24.50;55.40;;;;;;5055350;28;20054;-63
2022/07/03 08:19:31;;;;;;;1.50;0.75;;;24.60;54.90;;;;;;5052284;28;20370;-63
2022/07/03 08:21:58;;;;;;;1.77;0.90;;;24.60;55.10;;;;;;5057716;28;20139;-64
2022/07/03 08:24:25;;;;;;;1.30;0.70;;;24.80;54.10;;;;;;5051833;28;20049;-64
2022/07/03 08:26:52;;;;;;;1.67;0.77;;;24.90;54.20;;;;;;5059418;28;20048;-62
2022/07/03 08:29:19;;;;;;;2.08;0.80;;;25.00;53.40;;;;;;5047968;28;20064;-62
2022/07/03 08:31:46;;;;;;;1.88;0.77;;;25.10;53.40;;;;;;5042343;28;20065;-63
2022/07/03 08:34:13;;;;;;;1.58;0.90;;;25.20;53.30;;;;;;5044728;28;20053;-61
2022/07/03 08:36:43;;;;;;;2.25;0.93;;;25.30;52.70;;;;;;5032594;28;20134;-61
2022/07/03 08:39:10;;;;;;;2.97;1.13;;;25.40;52.30;;;;;;5046774;28;20064;-62
2022/07/03 08:41:39;;;;;;;2.65;0.95;;;25.50;52.30;;;;;;5049997;28;20052;-63
2022/07/03 08:44:08;;;;;;;1.35;0.73;;;25.60;52.00;;;;;;5047760;28;20060;-62
2022/07/03 08:46:36;;;;;;;1.70;0.80;;;25.70;52.10;;;;;;5048618;28;20077;-63
2022/07/03 08:49:03;;;;;;;1.10;0.70;;;25.80;51.70;;;;;;5045080;28;20472;-63
2022/07/03 08:51:30;;;;;;;2.20;0.80;;;25.90;51.70;;;;;;5050811;28;20074;-62
2022/07/03 08:54:02;;;;;;;7.70;1.20;;;26.00;51.40;;;;;;5046979;28;20063;-63
2022/07/03 08:56:29;;;;;;;1.15;0.73;;;26.10;51.20;;;;;;5049225;28;20048;-63
2022/07/03 08:58:58;;;;;;;0.98;0.70;;;26.20;50.40;;;;;;5046653;28;20127;-62
2022/07/03 09:01:26;;;;;;;1.63;0.80;;;26.20;50.20;;;;;;5052795;28;20053;-64
2022/07/03 09:03:53;;;;;;;1.15;0.60;;;26.30;50.10;;;;;;5052820;28;20052;-62
2022/07/03 09:06:21;;;;;;;2.00;1.00;;;26.40;50.30;;;;;;5055593;28;20060;-63
2022/07/03 09:08:50;;;;;;;1.20;0.80;;;26.50;49.50;;;;;;5055170;28;20414;-64
2022/07/03 09:11:18;;;;;;;1.30;0.70;;;26.60;49.30;;;;;;5053604;28;20055;-64
2022/07/03 09:13:45;;;;;;;1.60;1.00;;;26.80;49.40;;;;;;5054297;28;20055;-64
2022/07/03 09:16:16;;;;;;;1.95;1.10;;;26.80;48.90;;;;;;5043992;28;20059;-64
2022/07/03 09:18:45;;;;;;;1.58;0.70;;;26.90;48.60;;;;;;5047409;28;20052;-66
2022/07/03 09:21:12;;;;;;;3.38;1.10;;;27.10;48.70;;;;;;5045342;28;20056;-63
2022/07/03 09:23:43;;;;;;;3.17;1.77;;;27.20;48.10;;;;;;5039045;28;20062;-63
2022/07/03 09:26:14;;;;;;;2.78;1.48;;;27.30;48.10;;;;;;5046161;28;20063;-64
2022/07/03 09:28:48;;;;;;;4.15;1.77;;;27.40;48.20;;;;;;5045086;28;20144;-62
2022/07/03 09:31:17;;;;;;;4.10;1.92;;;27.50;47.90;;;;;;5048895;28;20132;-64
2022/07/03 09:33:57;;;;;;;;;;;27.60;47.90;;;;;;5046796;28;20055;-64
2022/07/03 09:36:38;;;;;;;3.28;1.70;;;27.70;48.00;;;;;;5051599;28;19943;-63
2022/07/03 09:39:14;;;;;;;2.92;1.67;;;27.80;47.20;;;;;;5031040;28;20087;-64
2022/07/03 09:41:52;;;;;;;3.30;1.70;;;27.90;47.00;;;;;;5047538;28;20068;-64
2022/07/03 09:44:31;;;;;;;6.15;1.80;;;27.90;47.00;;;;;;5047438;28;20095;-63
2022/07/03 09:47:08;;;;;;;2.30;1.25;;;28.10;47.00;;;;;;5046926;28;20049;-64
2022/07/03 09:49:50;;;;;;;2.80;1.33;;;28.10;46.60;;;;;;5046309;28;20040;-66
2022/07/03 09:52:42;;;;;;;1.75;1.10;;;28.30;46.60;;;;;;5044847;28;20040;-61
2022/07/03 09:55:18;;;;;;;2.30;1.17;;;28.30;46.10;;;;;;5029308;28;20085;-62
2022/07/03 09:57:47;;;;;;;5.65;1.70;;;28.30;46.10;;;;;;5045736;28;20047;-64
2022/07/03 10:00:18;;;;;;;2.38;1.27;;;28.40;46.10;;;;;;5043584;28;20045;-63
2022/07/03 10:02:59;;;;;;;2.70;1.50;;;28.50;45.80;;;;;;5055952;28;20051;-64
2022/07/03 10:05:29;;;;;;;2.80;1.80;;;28.50;45.40;;;;;;5056453;28;20060;-64
2022/07/03 10:07:57;;;;;;;3.80;1.88;;;28.40;45.00;;;;;;5059829;28;20101;-63
2022/07/03 10:10:27;;;;;;;5.18;1.60;;;28.50;44.70;;;;;;5061523;28;20401;-63
2022/07/03 10:12:55;;;;;;;2.00;0.80;;;28.60;45.00;;;;;;5057282;28;20148;-63
2022/07/03 10:15:25;;;;;;;2.47;0.83;;;28.60;44.70;;;;;;5058461;28;20049;-64
2022/07/03 10:17:53;;;;;;;2.00;0.90;;;28.40;44.10;;;;;;5059668;28;21761;-62
2022/07/03 10:20:28;;;;;;;2.22;0.90;;;28.50;44.10;;;;;;5060567;28;20906;-62
2022/07/03 10:22:56;;;;;;;1.95;0.77;;;28.30;43.70;;;;;;5059344;28;20044;-65
2022/07/03 10:25:23;;;;;;;0.90;0.60;;;28.30;44.10;;;;;;5058564;28;20068;-63
2022/07/03 10:27:51;;;;;;;1.48;0.75;;;28.40;43.90;;;;;;5057682;28;20135;-63
2022/07/03 10:30:19;;;;;;;1.10;0.77;;;28.50;43.70;;;;;;5058067;28;20049;-63
2022/07/03 10:32:49;;;;;;;1.00;0.70;;;28.60;43.60;;;;;;5057726;28;20047;-61
2022/07/03 10:35:19;;;;;;;1.27;0.93;;;28.70;43.30;;;;;;5058088;28;20133;-62
2022/07/03 10:38:10;;;;;;;1.10;0.68;;;28.80;42.90;;;;;;5057163;28;20044;-62
2022/07/03 10:46:17;;;;;;;1.15;0.55;;;29.20;41.80;;;;;;5057715;28;20516;-62
2022/07/03 10:48:56;;;;;;;1.77;0.80;;;29.20;41.50;;;;;;5056967;28;20048;-63
2022/07/03 10:51:24;;;;;;;0.93;0.60;;;29.30;41.50;;;;;;5057685;28;20068;-62
2022/07/03 10:54:11;;;;;;;1.53;1.00;;;29.40;41.40;;;;;;5035192;28;20037;-64
2022/07/03 10:57:20;;;;;;;1.42;0.70;;;29.40;41.10;;;;;;5058048;28;20127;-62
2022/07/03 11:00:13;;;;;;;1.20;0.73;;;29.50;40.60;;;;;;5051085;28;20060;-63
2022/07/03 11:02:41;;;;;;;1.00;0.60;;;29.60;40.60;;;;;;5033037;28;20396;-63
2022/07/03 11:05:10;;;;;;;1.27;0.68;;;29.60;40.10;;;;;;5046118;28;20051;-64
2022/07/03 11:07:44;;;;;;;1.98;0.63;;;29.70;39.90;;;;;;5046745;28;20041;-63
2022/07/03 11:10:30;;;;;;;2.47;0.95;;;29.70;40.00;;;;;;5046914;28;20421;-65
2022/07/03 11:12:58;;;;;;;1.13;0.80;;;29.80;40.10;;;;;;5045827;28;20163;-63
2022/07/03 11:15:31;;;;;;;1.48;0.65;;;29.80;40.10;;;;;;5038344;28;20060;-65
2022/07/03 11:18:15;;;;;;;2.90;0.80;;;29.90;40.10;;;;;;5051903;28;20545;-63
2022/07/03 11:21:28;;;;;;;3.00;1.10;;;29.90;39.50;;;;;;5047798;28;20140;-62
2022/07/03 11:24:24;;;;;;;2.72;1.20;;;30.00;39.70;;;;;;5050903;28;20072;-63
2022/07/03 11:27:22;;;;;;;7.00;1.13;;;30.00;39.40;;;;;;5045997;28;20052;-62
2022/07/03 11:29:51;;;;;;;4.57;1.30;;;30.00;38.40;;;;;;5052562;28;20040;-62
2022/07/03 11:32:37;;;;;;;;;;;30.00;38.90;;;;;;5046099;28;20040;-62
2022/07/03 11:35:06;;;;;;;5.78;1.02;;;30.10;38.70;;;;;;5044839;28;19931;-62
2022/07/03 11:37:32;;;;;;;;;;;30.20;38.30;;;;;;5050778;28;20048;-64
2022/07/03 11:40:04;;;;;;;2.17;0.90;;;30.10;38.40;;;;;;5058407;28;19938;-64
2022/07/03 11:42:34;;;;;;;4.13;0.98;;;30.20;38.10;;;;;;5058024;28;20102;-64
2022/07/03 11:45:02;;;;;;;1.85;1.02;;;30.20;38.30;;;;;;5047232;28;20041;-62
2022/07/03 11:47:29;;;;;;;2.40;0.90;;;30.20;38.50;;;;;;5038871;28;20044;-63
2022/07/03 11:49:56;;;;;;;3.25;0.90;;;30.10;38.20;;;;;;5039284;28;20045;-63
2022/07/03 11:52:34;;;;;;;2.28;0.80;;;30.10;38.30;;;;;;5040429;28;20067;-62
2022/07/03 11:55:01;;;;;;;1.90;0.63;;;30.20;37.90;;;;;;5039606;28;20054;-63
2022/07/03 11:57:28;;;;;;;2.20;0.73;;;30.30;37.90;;;;;;5035700;28;20533;-62
2022/07/03 12:00:05;;;;;;;1.70;0.85;;;30.30;37.90;;;;;;5036068;28;20050;-62
2022/07/03 12:02:49;;;;;;;1.35;0.82;;;30.30;36.80;;;;;;5038523;28;20041;-63
2022/07/03 12:05:16;;;;;;;1.67;0.90;;;30.40;37.30;;;;;;5039287;28;20045;-63
2022/07/03 12:07:45;;;;;;;2.10;0.80;;;30.30;37.10;;;;;;5038663;28;20812;-63
2022/07/03 12:10:12;;;;;;;1.15;0.73;;;30.30;37.30;;;;;;5039598;28;20053;-64
2022/07/03 12:12:39;;;;;;;3.50;0.90;;;30.20;37.50;;;;;;5039269;28;20041;-63
2022/07/03 12:15:06;;;;;;;1.65;0.80;;;30.30;36.90;;;;;;5038225;28;20084;-64
2022/07/03 12:17:34;;;;;;;2.17;0.60;;;30.30;37.20;;;;;;5038962;28;20056;-64
2022/07/03 12:20:02;;;;;;;0.75;0.60;;;30.30;37.10;;;;;;5039300;28;20483;-63
2022/07/03 12:22:30;;;;;;;1.92;0.68;;;30.20;36.30;;;;;;5039925;28;20073;-63
2022/07/03 12:25:01;;;;;;;1.75;1.30;;;30.20;36.50;;;;;;5032132;28;20044;-62
2022/07/03 12:27:29;;;;;;;1.20;0.60;;;30.20;36.40;;;;;;5038795;28;20061;-62
2022/07/03 12:29:57;;;;;;;1.52;0.70;;;30.30;36.50;;;;;;5038034;28;20052;-63
2022/07/03 12:32:24;;;;;;;0.50;0.50;;;30.20;36.70;;;;;;5038476;28;20056;-63
2022/07/03 12:34:51;;;;;;;1.85;1.35;;;30.10;37.20;;;;;;5030753;28;20047;-62
2022/07/03 12:37:31;;;;;;;3.17;0.70;;;30.10;36.60;;;;;;5033775;28;20055;-63
2022/07/03 12:39:59;;;;;;;2.38;0.65;;;30.20;36.90;;;;;;5033801;28;20051;-63
2022/07/03 12:42:26;;;;;;;0.98;0.60;;;30.10;36.70;;;;;;5037722;28;20075;-62
2022/07/03 12:44:57;;;;;;;0.95;0.60;;;30.20;36.70;;;;;;5037137;28;20047;-62
2022/07/03 12:47:25;;;;;;;1.10;0.65;;;30.20;36.40;;;;;;5034824;28;20045;-63
2022/07/03 12:50:00;;;;;;;1.20;0.70;;;30.20;36.10;;;;;;5055064;28;20156;-64
2022/07/03 12:52:27;;;;;;;1.10;0.50;;;30.20;36.50;;;;;;5051838;28;20156;-62
2022/07/03 12:54:55;;;;;;;0.95;0.55;;;30.10;36.30;;;;;;5053386;28;20041;-63
2022/07/03 13:00:11;;;;;;;0.80;0.40;;;29.90;36.30;;;;;;5049193;28;20555;-61
2022/07/03 13:02:39;;;;;;;1.25;0.68;;;29.90;35.90;;;;;;5056364;28;20071;-61
2022/07/03 13:05:17;;;;;;;1.52;0.75;;;29.80;36.20;;;;;;5055552;28;20051;-64
2022/07/03 13:07:45;;;;;;;0.70;0.50;;;29.80;36.60;;;;;;5057309;28;20127;-61
2022/07/03 13:10:12;;;;;;;1.73;0.53;;;29.70;36.20;;;;;;5055182;28;20080;-62
2022/07/03 13:12:50;;;;;;;2.22;0.60;;;29.70;36.40;;;;;;5057533;28;20547;-62
2022/07/03 13:15:19;;;;;;;1.05;0.50;;;29.70;36.30;;;;;;5056159;28;20475;-61
2022/07/03 13:17:59;;;;;;;2.67;0.70;;;29.60;37.40;;;;;;5057231;28;20047;-62
2022/07/03 13:20:28;;;;;;;0.60;0.47;;;29.60;36.90;;;;;;5058329;28;20487;-62